sensor_id;sensor_type;location;lat;lon;timestamp;P1;durP1;ratioP1;P2;durP2;ratioP2
37087;SDS011;23002;52.676;6.432;2023-06-26T00:01:07;10.05;;;5.63;;
37087;SDS011;23002;52.676;6.432;2023-06-26T00:03:34;15.57;;;5.55;;
37087;SDS011;23002;52.676;6.432;2023-06-26T00:06:01;9.30;;;5.55;;
37087;SDS011;23002;52.676;6.432;2023-06-26T00:08:28;8.55;;;5.22;;
37087;SDS011;23002;52.676;6.432;2023-06-26T00:10:55;9.50;;;5.60;;
37087;SDS011;23002;52.676;6.432;2023-06-26T00:13:22;10.10;;;5.75;;
37087;SDS011;23002;52.676;6.432;2023-06-26T00:15:50;10.93;;;5.57;;
37087;SDS011;23002;52.676;6.432;2023-06-26T00:18:17;8.02;;;5.40;;
37087;SDS011;23002;52.676;6.432;2023-06-26T00:20:44;8.20;;;5.63;;
37087;SDS011;23002;52.676;6.432;2023-06-26T00:23:11;9.10;;;5.53;;
37087;SDS011;23002;52.676;6.432;2023-06-26T00:25:39;10.75;;;5.90;;
37087;SDS011;23002;52.676;6.432;2023-06-26T00:28:06;9.52;;;6.28;;
37087;SDS011;23002;52.676;6.432;2023-06-26T00:30:33;9.88;;;6.00;;
37087;SDS011;23002;52.676;6.432;2023-06-26T00:33:00;9.35;;;6.05;;
37087;SDS011;23002;52.676;6.432;2023-06-26T00:35:27;9.00;;;5.35;;
37087;SDS011;23002;52.676;6.432;2023-06-26T00:37:54;10.02;;;5.85;;
37087;SDS011;23002;52.676;6.432;2023-06-26T00:40:21;8.82;;;5.60;;
37087;SDS011;23002;52.676;6.432;2023-06-26T00:42:48;9.75;;;5.97;;
37087;SDS011;23002;52.676;6.432;2023-06-26T00:45:15;8.85;;;5.57;;
37087;SDS011;23002;52.676;6.432;2023-06-26T00:47:55;11.48;;;5.38;;
37087;SDS011;23002;52.676;6.432;2023-06-26T00:50:22;11.85;;;6.45;;
37087;SDS011;23002;52.676;6.432;2023-06-26T00:52:50;10.10;;;6.10;;
37087;SDS011;23002;52.676;6.432;2023-06-26T00:55:17;10.95;;;6.22;;
37087;SDS011;23002;52.676;6.432;2023-06-26T00:57:43;10.75;;;6.15;;
37087;SDS011;23002;52.676;6.432;2023-06-26T01:00:12;9.02;;;5.88;;
37087;SDS011;23002;52.676;6.432;2023-06-26T01:02:39;10.25;;;5.75;;
37087;SDS011;23002;52.676;6.432;2023-06-26T01:05:08;11.13;;;6.03;;
37087;SDS011;23002;52.676;6.432;2023-06-26T01:07:38;9.68;;;5.65;;
37087;SDS011;23002;52.676;6.432;2023-06-26T01:10:06;11.68;;;6.20;;
37087;SDS011;23002;52.676;6.432;2023-06-26T01:12:33;10.13;;;5.97;;
37087;SDS011;23002;52.676;6.432;2023-06-26T01:15:00;10.10;;;6.15;;
37087;SDS011;23002;52.676;6.432;2023-06-26T01:17:28;8.73;;;5.53;;
37087;SDS011;23002;52.676;6.432;2023-06-26T01:19:59;13.13;;;6.20;;
37087;SDS011;23002;52.676;6.432;2023-06-26T01:22:31;10.38;;;6.53;;
37087;SDS011;23002;52.676;6.432;2023-06-26T01:25:21;8.90;;;5.57;;
37087;SDS011;23002;52.676;6.432;2023-06-26T01:28:05;9.45;;;5.90;;
37087;SDS011;23002;52.676;6.432;2023-06-26T01:30:32;10.02;;;5.60;;
37087;SDS011;23002;52.676;6.432;2023-06-26T01:33:03;11.32;;;6.82;;
37087;SDS011;23002;52.676;6.432;2023-06-26T01:35:30;7.88;;;5.53;;
37087;SDS011;23002;52.676;6.432;2023-06-26T01:38:17;10.45;;;6.30;;
37087;SDS011;23002;52.676;6.432;2023-06-26T01:40:49;9.13;;;6.22;;
37087;SDS011;23002;52.676;6.432;2023-06-26T01:46:22;9.10;;;5.97;;
37087;SDS011;23002;52.676;6.432;2023-06-26T01:48:54;9.32;;;5.75;;
37087;SDS011;23002;52.676;6.432;2023-06-26T01:51:32;11.70;;;6.60;;
37087;SDS011;23002;52.676;6.432;2023-06-26T01:54:05;8.13;;;5.50;;
37087;SDS011;23002;52.676;6.432;2023-06-26T01:59:04;8.63;;;5.70;;
37087;SDS011;23002;52.676;6.432;2023-06-26T02:01:33;10.25;;;6.38;;
37087;SDS011;23002;52.676;6.432;2023-06-26T02:04:00;12.43;;;7.22;;
37087;SDS011;23002;52.676;6.432;2023-06-26T02:06:27;10.80;;;5.85;;
37087;SDS011;23002;52.676;6.432;2023-06-26T02:08:54;7.90;;;6.00;;
37087;SDS011;23002;52.676;6.432;2023-06-26T02:11:23;11.63;;;6.43;;
37087;SDS011;23002;52.676;6.432;2023-06-26T02:13:49;11.98;;;6.75;;
37087;SDS011;23002;52.676;6.432;2023-06-26T02:16:16;9.82;;;6.72;;
37087;SDS011;23002;52.676;6.432;2023-06-26T02:18:43;10.98;;;6.57;;
37087;SDS011;23002;52.676;6.432;2023-06-26T02:21:10;10.82;;;6.78;;
37087;SDS011;23002;52.676;6.432;2023-06-26T02:23:37;9.43;;;6.57;;
37087;SDS011;23002;52.676;6.432;2023-06-26T02:26:04;9.88;;;6.45;;
37087;SDS011;23002;52.676;6.432;2023-06-26T02:28:31;11.05;;;6.63;;
37087;SDS011;23002;52.676;6.432;2023-06-26T02:30:59;9.80;;;6.78;;
37087;SDS011;23002;52.676;6.432;2023-06-26T02:33:27;10.70;;;6.72;;
37087;SDS011;23002;52.676;6.432;2023-06-26T02:35:54;13.18;;;7.25;;
37087;SDS011;23002;52.676;6.432;2023-06-26T02:38:21;11.45;;;6.85;;
37087;SDS011;23002;52.676;6.432;2023-06-26T02:40:47;11.48;;;6.47;;
37087;SDS011;23002;52.676;6.432;2023-06-26T02:43:14;11.73;;;6.90;;
37087;SDS011;23002;52.676;6.432;2023-06-26T02:45:42;12.00;;;6.60;;
37087;SDS011;23002;52.676;6.432;2023-06-26T02:48:09;10.25;;;6.60;;
37087;SDS011;23002;52.676;6.432;2023-06-26T02:50:35;12.18;;;6.85;;
37087;SDS011;23002;52.676;6.432;2023-06-26T02:53:02;13.88;;;6.22;;
37087;SDS011;23002;52.676;6.432;2023-06-26T02:55:29;11.55;;;6.60;;
37087;SDS011;23002;52.676;6.432;2023-06-26T02:57:56;13.45;;;7.55;;
37087;SDS011;23002;52.676;6.432;2023-06-26T03:00:23;10.55;;;7.00;;
37087;SDS011;23002;52.676;6.432;2023-06-26T03:02:50;13.65;;;6.68;;
37087;SDS011;23002;52.676;6.432;2023-06-26T03:05:16;11.40;;;6.22;;
37087;SDS011;23002;52.676;6.432;2023-06-26T03:07:43;15.43;;;7.60;;
37087;SDS011;23002;52.676;6.432;2023-06-26T03:10:10;12.75;;;7.05;;
37087;SDS011;23002;52.676;6.432;2023-06-26T03:12:37;11.20;;;6.60;;
37087;SDS011;23002;52.676;6.432;2023-06-26T03:15:04;12.00;;;7.32;;
37087;SDS011;23002;52.676;6.432;2023-06-26T03:17:31;9.88;;;6.30;;
37087;SDS011;23002;52.676;6.432;2023-06-26T03:19:57;11.15;;;7.07;;
37087;SDS011;23002;52.676;6.432;2023-06-26T03:22:24;12.88;;;7.82;;
37087;SDS011;23002;52.676;6.432;2023-06-26T03:24:51;11.35;;;6.93;;
37087;SDS011;23002;52.676;6.432;2023-06-26T03:27:18;10.30;;;6.50;;
37087;SDS011;23002;52.676;6.432;2023-06-26T03:29:45;11.57;;;6.90;;
37087;SDS011;23002;52.676;6.432;2023-06-26T03:32:12;11.38;;;6.60;;
37087;SDS011;23002;52.676;6.432;2023-06-26T03:34:39;12.27;;;6.97;;
37087;SDS011;23002;52.676;6.432;2023-06-26T03:37:06;11.00;;;6.60;;
37087;SDS011;23002;52.676;6.432;2023-06-26T03:39:33;11.05;;;6.78;;
37087;SDS011;23002;52.676;6.432;2023-06-26T03:42:00;11.82;;;7.00;;
37087;SDS011;23002;52.676;6.432;2023-06-26T03:44:27;11.20;;;5.47;;
37087;SDS011;23002;52.676;6.432;2023-06-26T03:46:55;10.52;;;5.78;;
37087;SDS011;23002;52.676;6.432;2023-06-26T03:49:22;8.68;;;5.75;;
37087;SDS011;23002;52.676;6.432;2023-06-26T03:51:49;10.40;;;5.78;;
37087;SDS011;23002;52.676;6.432;2023-06-26T03:54:16;9.95;;;6.20;;
37087;SDS011;23002;52.676;6.432;2023-06-26T03:56:43;9.15;;;5.90;;
37087;SDS011;23002;52.676;6.432;2023-06-26T03:59:10;8.50;;;5.50;;
37087;SDS011;23002;52.676;6.432;2023-06-26T04:01:37;8.95;;;5.72;;
37087;SDS011;23002;52.676;6.432;2023-06-26T04:04:04;9.68;;;4.75;;
37087;SDS011;23002;52.676;6.432;2023-06-26T04:06:31;11.48;;;5.72;;
37087;SDS011;23002;52.676;6.432;2023-06-26T04:08:58;9.93;;;5.78;;
37087;SDS011;23002;52.676;6.432;2023-06-26T04:11:25;12.23;;;4.57;;
37087;SDS011;23002;52.676;6.432;2023-06-26T04:13:52;8.15;;;4.53;;
37087;SDS011;23002;52.676;6.432;2023-06-26T04:16:20;7.88;;;4.88;;
37087;SDS011;23002;52.676;6.432;2023-06-26T04:18:51;7.80;;;5.05;;
37087;SDS011;23002;52.676;6.432;2023-06-26T04:21:19;8.52;;;4.47;;
37087;SDS011;23002;52.676;6.432;2023-06-26T04:23:46;8.70;;;4.32;;
37087;SDS011;23002;52.676;6.432;2023-06-26T04:26:15;8.55;;;4.53;;
37087;SDS011;23002;52.676;6.432;2023-06-26T04:28:42;7.07;;;3.78;;
37087;SDS011;23002;52.676;6.432;2023-06-26T04:31:09;6.88;;;4.00;;
37087;SDS011;23002;52.676;6.432;2023-06-26T04:33:36;7.60;;;3.65;;
37087;SDS011;23002;52.676;6.432;2023-06-26T04:36:08;6.60;;;3.50;;
37087;SDS011;23002;52.676;6.432;2023-06-26T04:38:35;7.55;;;3.05;;
37087;SDS011;23002;52.676;6.432;2023-06-26T04:41:02;12.45;;;4.07;;
37087;SDS011;23002;52.676;6.432;2023-06-26T04:43:29;10.70;;;3.67;;
37087;SDS011;23002;52.676;6.432;2023-06-26T04:45:56;7.40;;;3.13;;
37087;SDS011;23002;52.676;6.432;2023-06-26T04:48:23;5.63;;;2.83;;
37087;SDS011;23002;52.676;6.432;2023-06-26T04:50:49;8.98;;;3.58;;
37087;SDS011;23002;52.676;6.432;2023-06-26T04:53:20;7.65;;;3.67;;
37087;SDS011;23002;52.676;6.432;2023-06-26T04:55:49;6.53;;;2.63;;
37087;SDS011;23002;52.676;6.432;2023-06-26T04:58:19;5.10;;;2.75;;
37087;SDS011;23002;52.676;6.432;2023-06-26T05:00:46;6.60;;;2.72;;
37087;SDS011;23002;52.676;6.432;2023-06-26T05:03:15;7.18;;;3.00;;
37087;SDS011;23002;52.676;6.432;2023-06-26T05:05:43;8.82;;;2.90;;
37087;SDS011;23002;52.676;6.432;2023-06-26T05:08:14;10.43;;;3.00;;
37087;SDS011;23002;52.676;6.432;2023-06-26T05:10:42;6.25;;;3.10;;
37087;SDS011;23002;52.676;6.432;2023-06-26T05:13:09;8.07;;;3.15;;
37087;SDS011;23002;52.676;6.432;2023-06-26T05:15:37;7.10;;;3.20;;
37087;SDS011;23002;52.676;6.432;2023-06-26T05:18:03;11.35;;;3.03;;
37087;SDS011;23002;52.676;6.432;2023-06-26T05:20:31;5.65;;;2.72;;
37087;SDS011;23002;52.676;6.432;2023-06-26T05:22:58;7.07;;;2.83;;
37087;SDS011;23002;52.676;6.432;2023-06-26T05:25:26;7.32;;;2.65;;
37087;SDS011;23002;52.676;6.432;2023-06-26T05:27:55;9.05;;;2.70;;
37087;SDS011;23002;52.676;6.432;2023-06-26T05:30:23;8.27;;;2.85;;
37087;SDS011;23002;52.676;6.432;2023-06-26T05:32:54;9.63;;;2.80;;
37087;SDS011;23002;52.676;6.432;2023-06-26T05:35:21;7.43;;;2.95;;
37087;SDS011;23002;52.676;6.432;2023-06-26T05:37:49;8.75;;;3.35;;
37087;SDS011;23002;52.676;6.432;2023-06-26T05:40:17;8.55;;;3.30;;
37087;SDS011;23002;52.676;6.432;2023-06-26T05:42:45;13.27;;;3.05;;
37087;SDS011;23002;52.676;6.432;2023-06-26T05:45:12;6.47;;;2.53;;
37087;SDS011;23002;52.676;6.432;2023-06-26T05:47:39;5.10;;;2.28;;
37087;SDS011;23002;52.676;6.432;2023-06-26T05:50:07;7.93;;;2.80;;
37087;SDS011;23002;52.676;6.432;2023-06-26T05:52:34;5.20;;;2.15;;
37087;SDS011;23002;52.676;6.432;2023-06-26T05:55:02;5.65;;;2.22;;
37087;SDS011;23002;52.676;6.432;2023-06-26T05:57:30;4.55;;;1.63;;
37087;SDS011;23002;52.676;6.432;2023-06-26T05:59:57;4.18;;;1.65;;
37087;SDS011;23002;52.676;6.432;2023-06-26T06:02:25;3.67;;;1.67;;
37087;SDS011;23002;52.676;6.432;2023-06-26T06:04:52;6.00;;;2.00;;
37087;SDS011;23002;52.676;6.432;2023-06-26T06:07:19;8.25;;;2.30;;
37087;SDS011;23002;52.676;6.432;2023-06-26T06:09:46;4.57;;;1.70;;
37087;SDS011;23002;52.676;6.432;2023-06-26T06:12:13;2.88;;;1.40;;
37087;SDS011;23002;52.676;6.432;2023-06-26T06:14:40;4.75;;;1.52;;
37087;SDS011;23002;52.676;6.432;2023-06-26T06:17:08;3.13;;;1.73;;
37087;SDS011;23002;52.676;6.432;2023-06-26T06:19:35;5.22;;;1.20;;
37087;SDS011;23002;52.676;6.432;2023-06-26T06:22:02;2.50;;;1.08;;
37087;SDS011;23002;52.676;6.432;2023-06-26T06:24:29;3.25;;;1.50;;
37087;SDS011;23002;52.676;6.432;2023-06-26T06:26:56;3.17;;;1.25;;
37087;SDS011;23002;52.676;6.432;2023-06-26T06:29:23;2.65;;;1.05;;
37087;SDS011;23002;52.676;6.432;2023-06-26T06:31:51;1.05;;;0.65;;
37087;SDS011;23002;52.676;6.432;2023-06-26T06:34:18;1.33;;;0.60;;
37087;SDS011;23002;52.676;6.432;2023-06-26T06:36:46;1.63;;;0.75;;
37087;SDS011;23002;52.676;6.432;2023-06-26T06:39:13;1.30;;;0.60;;
37087;SDS011;23002;52.676;6.432;2023-06-26T06:41:40;2.75;;;0.57;;
37087;SDS011;23002;52.676;6.432;2023-06-26T06:44:07;1.48;;;0.60;;
37087;SDS011;23002;52.676;6.432;2023-06-26T06:46:34;3.85;;;0.82;;
37087;SDS011;23002;52.676;6.432;2023-06-26T06:49:02;2.35;;;0.70;;
37087;SDS011;23002;52.676;6.432;2023-06-26T06:51:30;2.88;;;0.90;;
37087;SDS011;23002;52.676;6.432;2023-06-26T06:53:57;1.67;;;0.47;;
37087;SDS011;23002;52.676;6.432;2023-06-26T06:56:24;2.75;;;0.70;;
37087;SDS011;23002;52.676;6.432;2023-06-26T06:58:51;1.50;;;0.60;;
37087;SDS011;23002;52.676;6.432;2023-06-26T07:01:19;3.30;;;0.73;;
37087;SDS011;23002;52.676;6.432;2023-06-26T07:03:46;3.28;;;0.77;;
37087;SDS011;23002;52.676;6.432;2023-06-26T07:06:13;4.82;;;0.80;;
37087;SDS011;23002;52.676;6.432;2023-06-26T07:08:40;2.20;;;0.80;;
37087;SDS011;23002;52.676;6.432;2023-06-26T07:11:08;1.20;;;0.55;;
37087;SDS011;23002;52.676;6.432;2023-06-26T07:13:35;0.70;;;0.52;;
37087;SDS011;23002;52.676;6.432;2023-06-26T07:16:03;1.88;;;0.60;;
37087;SDS011;23002;52.676;6.432;2023-06-26T07:18:30;2.15;;;0.60;;
37087;SDS011;23002;52.676;6.432;2023-06-26T07:20:58;4.22;;;0.70;;
37087;SDS011;23002;52.676;6.432;2023-06-26T07:23:25;2.17;;;0.88;;
37087;SDS011;23002;52.676;6.432;2023-06-26T07:25:53;2.80;;;0.63;;
37087;SDS011;23002;52.676;6.432;2023-06-26T07:28:20;1.20;;;0.57;;
37087;SDS011;23002;52.676;6.432;2023-06-26T07:30:48;1.40;;;0.60;;
37087;SDS011;23002;52.676;6.432;2023-06-26T07:33:15;3.17;;;0.73;;
37087;SDS011;23002;52.676;6.432;2023-06-26T07:35:42;1.50;;;0.70;;
37087;SDS011;23002;52.676;6.432;2023-06-26T07:38:09;1.65;;;0.57;;
37087;SDS011;23002;52.676;6.432;2023-06-26T07:40:37;1.60;;;0.77;;
37087;SDS011;23002;52.676;6.432;2023-06-26T07:43:05;2.38;;;0.70;;
37087;SDS011;23002;52.676;6.432;2023-06-26T07:45:36;1.17;;;0.70;;
37087;SDS011;23002;52.676;6.432;2023-06-26T07:48:06;3.45;;;0.77;;
37087;SDS011;23002;52.676;6.432;2023-06-26T07:50:35;2.20;;;0.88;;
37087;SDS011;23002;52.676;6.432;2023-06-26T07:53:03;1.83;;;0.60;;
37087;SDS011;23002;52.676;6.432;2023-06-26T07:55:31;4.25;;;0.77;;
37087;SDS011;23002;52.676;6.432;2023-06-26T07:57:59;2.80;;;0.70;;
37087;SDS011;23002;52.676;6.432;2023-06-26T08:00:27;3.33;;;0.88;;
37087;SDS011;23002;52.676;6.432;2023-06-26T08:02:54;1.52;;;0.50;;
37087;SDS011;23002;52.676;6.432;2023-06-26T08:05:22;1.55;;;0.63;;
37087;SDS011;23002;52.676;6.432;2023-06-26T08:07:49;1.92;;;0.75;;
37087;SDS011;23002;52.676;6.432;2023-06-26T08:10:16;1.08;;;0.70;;
37087;SDS011;23002;52.676;6.432;2023-06-26T08:12:44;1.17;;;0.45;;
37087;SDS011;23002;52.676;6.432;2023-06-26T08:15:11;1.40;;;0.65;;
37087;SDS011;23002;52.676;6.432;2023-06-26T08:17:38;1.55;;;0.68;;
37087;SDS011;23002;52.676;6.432;2023-06-26T08:20:06;1.77;;;0.47;;
37087;SDS011;23002;52.676;6.432;2023-06-26T08:22:37;1.85;;;0.50;;
37087;SDS011;23002;52.676;6.432;2023-06-26T08:25:04;3.35;;;0.80;;
37087;SDS011;23002;52.676;6.432;2023-06-26T08:27:32;2.60;;;0.75;;
37087;SDS011;23002;52.676;6.432;2023-06-26T08:29:59;2.22;;;0.60;;
37087;SDS011;23002;52.676;6.432;2023-06-26T08:32:26;1.50;;;0.55;;
37087;SDS011;23002;52.676;6.432;2023-06-26T08:34:53;2.38;;;0.65;;
37087;SDS011;23002;52.676;6.432;2023-06-26T08:37:20;2.47;;;0.68;;
37087;SDS011;23002;52.676;6.432;2023-06-26T08:39:48;1.33;;;0.70;;
37087;SDS011;23002;52.676;6.432;2023-06-26T08:42:15;1.25;;;0.60;;
37087;SDS011;23002;52.676;6.432;2023-06-26T08:44:42;2.97;;;0.70;;
37087;SDS011;23002;52.676;6.432;2023-06-26T08:47:27;1.40;;;0.63;;
37087;SDS011;23002;52.676;6.432;2023-06-26T08:50:01;1.20;;;0.70;;
37087;SDS011;23002;52.676;6.432;2023-06-26T08:52:36;0.90;;;0.60;;
37087;SDS011;23002;52.676;6.432;2023-06-26T08:55:06;2.05;;;0.63;;
37087;SDS011;23002;52.676;6.432;2023-06-26T08:57:33;4.70;;;0.82;;
37087;SDS011;23002;52.676;6.432;2023-06-26T09:00:00;3.08;;;0.68;;
37087;SDS011;23002;52.676;6.432;2023-06-26T09:02:29;1.05;;;0.63;;
37087;SDS011;23002;52.676;6.432;2023-06-26T09:04:56;2.00;;;0.50;;
37087;SDS011;23002;52.676;6.432;2023-06-26T09:07:23;1.30;;;0.63;;
37087;SDS011;23002;52.676;6.432;2023-06-26T09:09:51;3.05;;;1.08;;
37087;SDS011;23002;52.676;6.432;2023-06-26T09:12:18;1.20;;;0.80;;
37087;SDS011;23002;52.676;6.432;2023-06-26T09:14:46;2.75;;;0.80;;
37087;SDS011;23002;52.676;6.432;2023-06-26T09:17:14;1.45;;;0.63;;
37087;SDS011;23002;52.676;6.432;2023-06-26T09:19:41;5.28;;;1.05;;
37087;SDS011;23002;52.676;6.432;2023-06-26T09:22:13;2.63;;;0.90;;
37087;SDS011;23002;52.676;6.432;2023-06-26T09:24:41;1.80;;;0.80;;
37087;SDS011;23002;52.676;6.432;2023-06-26T09:27:09;3.67;;;0.88;;
37087;SDS011;23002;52.676;6.432;2023-06-26T09:29:36;2.00;;;0.88;;
37087;SDS011;23002;52.676;6.432;2023-06-26T09:32:03;2.03;;;0.90;;
37087;SDS011;23002;52.676;6.432;2023-06-26T09:34:31;3.72;;;0.90;;
37087;SDS011;23002;52.676;6.432;2023-06-26T09:36:59;1.85;;;0.80;;
37087;SDS011;23002;52.676;6.432;2023-06-26T09:39:31;4.15;;;0.98;;
37087;SDS011;23002;52.676;6.432;2023-06-26T09:41:58;2.40;;;0.77;;
37087;SDS011;23002;52.676;6.432;2023-06-26T09:44:31;3.25;;;0.90;;
37087;SDS011;23002;52.676;6.432;2023-06-26T09:46:58;1.85;;;0.90;;
37087;SDS011;23002;52.676;6.432;2023-06-26T09:49:25;1.50;;;0.70;;
37087;SDS011;23002;52.676;6.432;2023-06-26T09:51:53;2.70;;;0.98;;
37087;SDS011;23002;52.676;6.432;2023-06-26T09:54:21;3.03;;;0.98;;
37087;SDS011;23002;52.676;6.432;2023-06-26T09:56:49;3.25;;;0.85;;
37087;SDS011;23002;52.676;6.432;2023-06-26T09:59:16;3.85;;;1.10;;
37087;SDS011;23002;52.676;6.432;2023-06-26T10:01:44;4.80;;;1.05;;
37087;SDS011;23002;52.676;6.432;2023-06-26T10:04:13;2.30;;;0.80;;
37087;SDS011;23002;52.676;6.432;2023-06-26T10:06:41;3.97;;;0.80;;
37087;SDS011;23002;52.676;6.432;2023-06-26T10:09:13;2.53;;;1.10;;
37087;SDS011;23002;52.676;6.432;2023-06-26T10:11:58;2.10;;;0.70;;
37087;SDS011;23002;52.676;6.432;2023-06-26T10:14:26;1.92;;;1.23;;
37087;SDS011;23002;52.676;6.432;2023-06-26T10:16:56;2.22;;;0.70;;
37087;SDS011;23002;52.676;6.432;2023-06-26T10:19:25;2.47;;;0.90;;
37087;SDS011;23002;52.676;6.432;2023-06-26T10:21:54;3.40;;;1.00;;
37087;SDS011;23002;52.676;6.432;2023-06-26T10:24:22;1.70;;;1.08;;
37087;SDS011;23002;52.676;6.432;2023-06-26T10:26:52;2.80;;;0.80;;
37087;SDS011;23002;52.676;6.432;2023-06-26T10:29:21;2.22;;;0.80;;
37087;SDS011;23002;52.676;6.432;2023-06-26T10:31:52;2.28;;;1.17;;
37087;SDS011;23002;52.676;6.432;2023-06-26T10:34:21;1.50;;;0.80;;
37087;SDS011;23002;52.676;6.432;2023-06-26T10:36:48;4.88;;;0.80;;
37087;SDS011;23002;52.676;6.432;2023-06-26T10:39:25;1.45;;;0.80;;
37087;SDS011;23002;52.676;6.432;2023-06-26T10:41:54;0.47;;;0.35;;
37087;SDS011;23002;52.676;6.432;2023-06-26T10:44:39;1.67;;;0.80;;
37087;SDS011;23002;52.676;6.432;2023-06-26T10:47:07;1.23;;;0.75;;
37087;SDS011;23002;52.676;6.432;2023-06-26T10:49:35;1.40;;;0.77;;
37087;SDS011;23002;52.676;6.432;2023-06-26T10:52:03;1.13;;;0.52;;
37087;SDS011;23002;52.676;6.432;2023-06-26T10:54:31;3.08;;;0.80;;
37087;SDS011;23002;52.676;6.432;2023-06-26T10:56:59;2.38;;;0.73;;
37087;SDS011;23002;52.676;6.432;2023-06-26T10:59:28;0.93;;;0.60;;
37087;SDS011;23002;52.676;6.432;2023-06-26T11:02:00;1.85;;;0.70;;
37087;SDS011;23002;52.676;6.432;2023-06-26T11:07:20;2.55;;;0.70;;
37087;SDS011;23002;52.676;6.432;2023-06-26T11:15:02;2.53;;;1.17;;
37087;SDS011;23002;52.676;6.432;2023-06-26T11:17:29;8.25;;;1.25;;
37087;SDS011;23002;52.676;6.432;2023-06-26T11:19:56;2.42;;;0.88;;
37087;SDS011;23002;52.676;6.432;2023-06-26T11:22:24;4.40;;;0.70;;
37087;SDS011;23002;52.676;6.432;2023-06-26T11:24:52;1.25;;;0.55;;
37087;SDS011;23002;52.676;6.432;2023-06-26T11:27:20;1.95;;;0.70;;
37087;SDS011;23002;52.676;6.432;2023-06-26T11:29:49;2.53;;;0.70;;
37087;SDS011;23002;52.676;6.432;2023-06-26T11:32:17;2.97;;;0.77;;
37087;SDS011;23002;52.676;6.432;2023-06-26T11:34:44;2.00;;;0.50;;
37087;SDS011;23002;52.676;6.432;2023-06-26T11:37:11;1.35;;;0.57;;
37087;SDS011;23002;52.676;6.432;2023-06-26T11:39:38;1.20;;;0.45;;
37087;SDS011;23002;52.676;6.432;2023-06-26T11:42:06;0.88;;;0.45;;
37087;SDS011;23002;52.676;6.432;2023-06-26T11:44:35;1.30;;;0.50;;
37087;SDS011;23002;52.676;6.432;2023-06-26T11:47:06;4.68;;;1.00;;
37087;SDS011;23002;52.676;6.432;2023-06-26T11:49:34;1.80;;;0.50;;
37087;SDS011;23002;52.676;6.432;2023-06-26T11:52:02;1.88;;;0.57;;
37087;SDS011;23002;52.676;6.432;2023-06-26T11:54:29;2.75;;;0.52;;
37087;SDS011;23002;52.676;6.432;2023-06-26T11:56:58;3.17;;;0.57;;
37087;SDS011;23002;52.676;6.432;2023-06-26T11:59:35;1.98;;;0.82;;
37087;SDS011;23002;52.676;6.432;2023-06-26T12:02:06;3.85;;;0.55;;
37087;SDS011;23002;52.676;6.432;2023-06-26T12:07:01;3.28;;;0.57;;
37087;SDS011;23002;52.676;6.432;2023-06-26T12:09:31;1.38;;;0.40;;
37087;SDS011;23002;52.676;6.432;2023-06-26T12:11:59;1.48;;;0.47;;
37087;SDS011;23002;52.676;6.432;2023-06-26T12:14:27;2.88;;;0.50;;
37087;SDS011;23002;52.676;6.432;2023-06-26T12:16:54;2.60;;;0.63;;
37087;SDS011;23002;52.676;6.432;2023-06-26T12:19:25;1.17;;;0.40;;
37087;SDS011;23002;52.676;6.432;2023-06-26T12:21:53;4.53;;;0.50;;
37087;SDS011;23002;52.676;6.432;2023-06-26T12:24:23;1.52;;;0.55;;
37087;SDS011;23002;52.676;6.432;2023-06-26T12:26:52;2.85;;;0.50;;
37087;SDS011;23002;52.676;6.432;2023-06-26T12:29:24;2.33;;;0.60;;
37087;SDS011;23002;52.676;6.432;2023-06-26T12:31:55;3.92;;;0.52;;
37087;SDS011;23002;52.676;6.432;2023-06-26T12:34:30;2.75;;;0.50;;
37087;SDS011;23002;52.676;6.432;2023-06-26T12:37:02;1.83;;;0.43;;
37087;SDS011;23002;52.676;6.432;2023-06-26T12:39:30;5.50;;;0.82;;
37087;SDS011;23002;52.676;6.432;2023-06-26T12:42:13;2.38;;;0.50;;
37087;SDS011;23002;52.676;6.432;2023-06-26T12:44:41;2.17;;;0.70;;
37087;SDS011;23002;52.676;6.432;2023-06-26T12:47:08;2.67;;;0.50;;
37087;SDS011;23002;52.676;6.432;2023-06-26T12:49:36;0.55;;;0.30;;
37087;SDS011;23002;52.676;6.432;2023-06-26T12:52:05;2.40;;;0.70;;
37087;SDS011;23002;52.676;6.432;2023-06-26T12:54:36;1.10;;;0.20;;
37087;SDS011;23002;52.676;6.432;2023-06-26T12:57:03;1.48;;;0.40;;
37087;SDS011;23002;52.676;6.432;2023-06-26T12:59:31;0.98;;;0.30;;
37087;SDS011;23002;52.676;6.432;2023-06-26T13:01:59;2.00;;;0.68;;
37087;SDS011;23002;52.676;6.432;2023-06-26T13:04:28;2.45;;;0.30;;
37087;SDS011;23002;52.676;6.432;2023-06-26T13:06:55;1.50;;;0.45;;
37087;SDS011;23002;52.676;6.432;2023-06-26T13:09:23;1.13;;;0.38;;
37087;SDS011;23002;52.676;6.432;2023-06-26T13:11:51;6.55;;;0.47;;
37087;SDS011;23002;52.676;6.432;2023-06-26T13:14:18;1.65;;;0.40;;
37087;SDS011;23002;52.676;6.432;2023-06-26T13:16:46;2.00;;;0.22;;
37087;SDS011;23002;52.676;6.432;2023-06-26T13:19:14;1.92;;;0.35;;
37087;SDS011;23002;52.676;6.432;2023-06-26T13:21:41;1.98;;;0.57;;
37087;SDS011;23002;52.676;6.432;2023-06-26T13:24:09;1.38;;;0.50;;
37087;SDS011;23002;52.676;6.432;2023-06-26T13:26:36;2.42;;;0.75;;
37087;SDS011;23002;52.676;6.432;2023-06-26T13:29:04;1.50;;;0.60;;
37087;SDS011;23002;52.676;6.432;2023-06-26T13:31:31;0.60;;;0.30;;
37087;SDS011;23002;52.676;6.432;2023-06-26T13:33:59;1.45;;;0.35;;
37087;SDS011;23002;52.676;6.432;2023-06-26T13:36:27;4.68;;;0.50;;
37087;SDS011;23002;52.676;6.432;2023-06-26T13:38:54;1.92;;;0.60;;
37087;SDS011;23002;52.676;6.432;2023-06-26T13:41:22;2.40;;;0.60;;
37087;SDS011;23002;52.676;6.432;2023-06-26T13:43:50;3.58;;;0.65;;
37087;SDS011;23002;52.676;6.432;2023-06-26T13:46:18;2.45;;;0.93;;
37087;SDS011;23002;52.676;6.432;2023-06-26T13:48:45;3.20;;;0.88;;
37087;SDS011;23002;52.676;6.432;2023-06-26T13:51:13;2.13;;;0.77;;
37087;SDS011;23002;52.676;6.432;2023-06-26T13:53:40;2.83;;;0.50;;
37087;SDS011;23002;52.676;6.432;2023-06-26T13:56:07;2.92;;;0.50;;
37087;SDS011;23002;52.676;6.432;2023-06-26T13:58:35;4.85;;;0.73;;
37087;SDS011;23002;52.676;6.432;2023-06-26T14:01:03;2.22;;;0.55;;
37087;SDS011;23002;52.676;6.432;2023-06-26T14:03:33;1.00;;;0.50;;
37087;SDS011;23002;52.676;6.432;2023-06-26T14:06:00;1.17;;;0.65;;
37087;SDS011;23002;52.676;6.432;2023-06-26T14:08:27;4.60;;;0.47;;
37087;SDS011;23002;52.676;6.432;2023-06-26T14:10:55;0.88;;;0.43;;
37087;SDS011;23002;52.676;6.432;2023-06-26T14:13:23;0.82;;;0.50;;
37087;SDS011;23002;52.676;6.432;2023-06-26T14:15:50;1.90;;;0.40;;
37087;SDS011;23002;52.676;6.432;2023-06-26T14:18:19;2.63;;;0.50;;
37087;SDS011;23002;52.676;6.432;2023-06-26T14:20:50;0.60;;;0.40;;
37087;SDS011;23002;52.676;6.432;2023-06-26T14:23:18;0.65;;;0.35;;
37087;SDS011;23002;52.676;6.432;2023-06-26T14:25:45;4.57;;;0.40;;
37087;SDS011;23002;52.676;6.432;2023-06-26T14:28:14;5.65;;;0.47;;
37087;SDS011;23002;52.676;6.432;2023-06-26T14:30:42;3.15;;;0.63;;
37087;SDS011;23002;52.676;6.432;2023-06-26T14:33:09;1.55;;;0.70;;
37087;SDS011;23002;52.676;6.432;2023-06-26T14:35:36;1.25;;;0.50;;
37087;SDS011;23002;52.676;6.432;2023-06-26T14:38:04;1.63;;;0.35;;
37087;SDS011;23002;52.676;6.432;2023-06-26T14:40:31;1.52;;;0.45;;
37087;SDS011;23002;52.676;6.432;2023-06-26T14:42:58;0.52;;;0.40;;
37087;SDS011;23002;52.676;6.432;2023-06-26T14:45:26;0.50;;;0.22;;
37087;SDS011;23002;52.676;6.432;2023-06-26T14:47:54;2.83;;;0.30;;
37087;SDS011;23002;52.676;6.432;2023-06-26T14:50:22;3.50;;;0.50;;
37087;SDS011;23002;52.676;6.432;2023-06-26T14:52:49;2.75;;;0.60;;
37087;SDS011;23002;52.676;6.432;2023-06-26T14:55:16;1.90;;;0.50;;
37087;SDS011;23002;52.676;6.432;2023-06-26T14:57:43;1.30;;;0.40;;
37087;SDS011;23002;52.676;6.432;2023-06-26T15:00:11;1.33;;;0.93;;
37087;SDS011;23002;52.676;6.432;2023-06-26T15:02:38;0.82;;;0.32;;
37087;SDS011;23002;52.676;6.432;2023-06-26T15:05:06;1.02;;;0.50;;
37087;SDS011;23002;52.676;6.432;2023-06-26T15:07:33;2.85;;;0.52;;